»·PEaware :: SWA1835 KLAS-KSNA

SWA1835 :: KLAS-KSNA

FLIGHT INFORMATION

Flight Status: Arrived
Operator:
Southwest Airlines
More flights by this operator :: More flights under this callsign
Pilot: Ben F. (2808)
Aircraft: BOEING 737-800
(B738)
More flights by this aircraft type
Origin: KLAS McCarran Intl
United States
Destination: KSNA John Wayne-Orange Co
United States
More flights between these airports :: More routes between these airports
Route: RADYR1 SLVRR FEYLA DSNEE4
File this flight plan on PilotEdge
Remarks:
Altitude:
(Current/Filed)
28,000ft
Speed:
(Current/Filed)
461kts
Departed: 05-Apr-21 10:52 AM
Arrived: 05-Apr-21 11:33 AM
Distance/Time
Traveled:
197nm/0:41
Distance/Time
To Go:
Arrived

Flight Plot

Page will automatically refresh every two minutes.

Flight plan parsing failed; only flown route is shown


Map Options




Map Legend


Flown Route
Filed Route
Departure Airport
Arrival Airport
Navaid (VOR, NDB)
Fix

Horizontal Profiles

Position Reports

Time Latitude Longitude Heading Altitude Ground
Speed
05-Apr-21 10:16 36.079871 -115.147069 55 2189ft 0kts
05-Apr-21 10:17 36.079871 -115.147069 55 2189ft 0kts
05-Apr-21 10:18 36.079871 -115.147069 55 2189ft 0kts
05-Apr-21 10:19 36.079871 -115.147069 55 2189ft 0kts
05-Apr-21 10:20 36.079871 -115.147069 55 2189ft 0kts
05-Apr-21 10:21 36.079871 -115.147069 55 2189ft 0kts
05-Apr-21 10:22 36.079871 -115.147069 55 2189ft 0kts
05-Apr-21 10:23 36.079871 -115.147069 55 2189ft 0kts
05-Apr-21 10:24 36.079871 -115.147069 55 2189ft 0kts
05-Apr-21 10:25 36.079871 -115.147069 55 2189ft 0kts
05-Apr-21 10:26 36.079871 -115.147069 55 2189ft 0kts
05-Apr-21 10:27 36.079871 -115.147069 55 2189ft 0kts
05-Apr-21 10:28 36.079871 -115.147069 55 2189ft 0kts
05-Apr-21 10:29 36.079871 -115.147069 55 2189ft 0kts
05-Apr-21 10:30 36.079871 -115.147069 55 2189ft 0kts
05-Apr-21 10:31 36.079871 -115.147069 55 2189ft 0kts
05-Apr-21 10:32 36.079871 -115.147069 55 2189ft 0kts
05-Apr-21 10:33 36.079871 -115.147069 55 2189ft 0kts
05-Apr-21 10:34 36.079871 -115.147069 55 2189ft 0kts
05-Apr-21 10:35 36.079871 -115.147069 55 2189ft 0kts
05-Apr-21 10:36 36.079871 -115.147069 55 2189ft 0kts
05-Apr-21 10:37 36.079871 -115.147069 55 2189ft 0kts
05-Apr-21 10:38 36.079870 -115.147071 55 2189ft 0kts
05-Apr-21 10:39 36.079826 -115.147804 155 2189ft 2kts
05-Apr-21 10:40 36.079826 -115.147804 155 2189ft 0kts
05-Apr-21 10:41 36.079825 -115.147804 155 2189ft 0kts
05-Apr-21 10:42 36.079417 -115.147576 155 2189ft 7kts
05-Apr-21 10:43 36.079011 -115.147347 156 2189ft 11kts
05-Apr-21 10:44 36.077554 -115.140822 91 2189ft 30kts
05-Apr-21 10:45 36.077553 -115.131853 89 2189ft 22kts
05-Apr-21 10:46 36.077542 -115.124888 89 2189ft 18kts
05-Apr-21 10:47 36.077369 -115.121347 148 2189ft 0kts
05-Apr-21 10:48 36.077369 -115.121347 148 2189ft 0kts
05-Apr-21 10:49 36.077369 -115.121347 148 2189ft 0kts
05-Apr-21 10:50 36.077369 -115.121347 148 2189ft 0kts
05-Apr-21 10:51 36.076412 -115.127996 269 2189ft 92kts
05-Apr-21 10:52 36.077573 -115.183655 268 3995ft 183kts
05-Apr-21 10:53 36.064235 -115.257953 223 6295ft 250kts
05-Apr-21 10:54 35.994730 -115.292827 198 8011ft 285kts
05-Apr-21 10:55 35.915622 -115.313213 193 10948ft 296kts
05-Apr-21 10:56 35.825301 -115.334974 195 12557ft 365kts
05-Apr-21 10:57 35.722877 -115.360065 195 15191ft 383kts
05-Apr-21 10:58 35.618414 -115.391307 212 17782ft 386kts
05-Apr-21 10:59 35.540757 -115.479553 232 18885ft 381kts
05-Apr-21 11:00 35.469141 -115.577071 231 20783ft 389kts
05-Apr-21 11:01 35.394925 -115.676716 231 22876ft 400kts
05-Apr-21 11:02 35.318863 -115.778689 231 24757ft 410kts
05-Apr-21 11:03 35.241396 -115.881882 231 26905ft 407kts
05-Apr-21 11:04 35.162950 -115.982072 230 27926ft 409kts
05-Apr-21 11:05 35.084311 -116.081189 230 27942ft 405kts
05-Apr-21 11:06 35.005898 -116.179782 230 27947ft 405kts
05-Apr-21 11:07 34.927314 -116.277993 230 27961ft 405kts
05-Apr-21 11:08 34.850400 -116.375050 231 27941ft 388kts
05-Apr-21 11:09 34.776873 -116.468691 231 27226ft 375kts
05-Apr-21 11:10 34.705469 -116.559223 231 25308ft 365kts
05-Apr-21 11:11 34.627763 -116.639286 223 23624ft 366kts
05-Apr-21 11:12 34.549375 -116.715532 224 21725ft 356kts
05-Apr-21 11:13 34.474795 -116.792388 229 19859ft 344kts
05-Apr-21 11:15 34.407165 -116.872284 228 18056ft 336kts
05-Apr-21 11:16 34.340242 -116.949731 229 16287ft 328kts
05-Apr-21 11:17 34.274661 -117.024821 225 14554ft 323kts
05-Apr-21 11:18 34.198945 -117.082767 216 13345ft 320kts
05-Apr-21 11:19 34.120455 -117.130476 209 12731ft 330kts
05-Apr-21 11:20 34.037283 -117.174364 210 12236ft 324kts
05-Apr-21 11:21 33.968991 -117.234070 234 11405ft 293kts
05-Apr-21 11:22 33.917361 -117.307286 234 10220ft 281kts
05-Apr-21 11:23 33.873349 -117.379873 242 9158ft 266kts
05-Apr-21 11:24 33.836450 -117.452159 242 8192ft 255kts
05-Apr-21 11:25 33.800998 -117.522073 242 7598ft 233kts
05-Apr-21 11:26 33.795851 -117.595041 278 7024ft 232kts
05-Apr-21 11:27 33.805037 -117.671894 278 5823ft 232kts
05-Apr-21 11:28 33.814496 -117.748378 278 4754ft 227kts
05-Apr-21 11:29 33.785127 -117.799820 207 3291ft 192kts
05-Apr-21 11:30 33.740670 -117.827999 209 1641ft 164kts
05-Apr-21 11:31 33.704281 -117.850915 208 611ft 145kts
05-Apr-21 11:32 33.672408 -117.870918 206 64ft 64kts
05-Apr-21 11:33 33.669074 -117.871123 80 64ft 10kts
05-Apr-21 11:34 33.671032 -117.868942 38 64ft 8kts
05-Apr-21 11:35 33.673550 -117.866823 29 64ft 12kts
05-Apr-21 11:36 33.675337 -117.865712 28 64ft 0kts
05-Apr-21 11:37 33.675355 -117.864893 117 64ft 1kts
05-Apr-21 11:38 33.675344 -117.864866 117 64ft 0kts
05-Apr-21 11:39 33.675344 -117.864866 117 64ft 0kts
05-Apr-21 11:40 33.675344 -117.864866 117 64ft 0kts
05-Apr-21 11:41 33.675344 -117.864866 117 64ft 0kts
05-Apr-21 11:41 33.675344 -117.864866 117 64ft 0kts
05-Apr-21 11:43 33.675344 -117.864866 117 64ft 0kts
05-Apr-21 11:44 33.675344 -117.864866 117 64ft 0kts
05-Apr-21 11:44 33.675344 -117.864866 117 64ft 0kts
05-Apr-21 11:46 33.675344 -117.864866 117 64ft 0kts

Navigation Log

Ident Type
Flight plan parsing failed, navigation log unavailable